createdAt,value
2019-03-03T00:01:55.686Z,4.00
2019-03-03T00:04:25.292Z,2.83
2019-03-03T00:06:54.152Z,2.97
2019-03-03T00:09:23.021Z,3.07
2019-03-03T00:11:51.904Z,4.70
2019-03-03T00:14:20.940Z,3.50
2019-03-03T00:16:49.617Z,3.13
2019-03-03T00:19:18.507Z,3.80
2019-03-03T00:21:47.379Z,2.73
2019-03-03T00:24:16.272Z,3.60
2019-03-03T00:26:45.102Z,4.83
2019-03-03T00:29:13.958Z,4.60
2019-03-03T00:31:42.821Z,3.20
2019-03-03T00:34:11.683Z,4.22
2019-03-03T00:36:45.944Z,3.80
2019-03-03T00:39:15.526Z,4.80
2019-03-03T00:41:45.130Z,3.23
2019-03-03T00:44:13.988Z,4.07
2019-03-03T00:46:42.952Z,3.10
2019-03-03T00:49:12.545Z,4.03
2019-03-03T00:51:42.385Z,3.60
2019-03-03T00:54:11.289Z,3.10
2019-03-03T00:56:46.716Z,3.83
2019-03-03T00:59:15.572Z,3.03
2019-03-03T01:01:45.317Z,3.37
2019-03-03T01:04:14.917Z,2.97
2019-03-03T01:06:44.635Z,3.97
2019-03-03T01:09:18.006Z,3.37
2019-03-03T01:11:47.635Z,3.20
2019-03-03T01:14:17.234Z,3.67
2019-03-03T01:16:46.880Z,3.62
2019-03-03T01:19:19.279Z,3.30
2019-03-03T01:21:50.894Z,3.53
2019-03-03T01:24:20.611Z,4.60
2019-03-03T01:26:49.480Z,3.63
2019-03-03T01:29:18.343Z,2.83
2019-03-03T01:31:47.221Z,3.37
2019-03-03T01:34:16.110Z,4.50
2019-03-03T01:36:44.973Z,3.53
2019-03-03T01:39:13.894Z,3.30
2019-03-03T01:41:42.728Z,5.23
2019-03-03T01:44:11.579Z,2.77
2019-03-03T01:46:40.440Z,2.60
2019-03-03T01:49:09.309Z,4.37
2019-03-03T01:51:38.152Z,4.70
2019-03-03T01:54:07.006Z,4.10
2019-03-03T01:56:35.868Z,5.20
2019-03-03T01:59:05.460Z,3.90
2019-03-03T02:01:34.315Z,2.70
2019-03-03T02:04:03.169Z,3.87
2019-03-03T02:06:32.023Z,4.63
2019-03-03T02:09:00.879Z,3.73
2019-03-03T02:11:29.731Z,3.73
2019-03-03T02:13:58.649Z,4.27
2019-03-03T02:16:27.489Z,3.97
2019-03-03T02:18:57.076Z,4.33
2019-03-03T02:21:26.293Z,3.80
2019-03-03T02:23:55.145Z,3.73
2019-03-03T02:26:23.986Z,5.10
2019-03-03T02:28:52.835Z,4.40
2019-03-03T02:31:21.689Z,3.37
2019-03-03T02:33:50.544Z,4.13
2019-03-03T02:36:19.405Z,4.53
2019-03-03T02:38:48.278Z,3.73
2019-03-03T02:41:17.129Z,3.83
2019-03-03T02:43:45.998Z,3.23
2019-03-03T02:46:15.592Z,4.93
2019-03-03T02:48:44.434Z,4.72
2019-03-03T02:51:13.286Z,3.83
2019-03-03T02:53:42.353Z,3.73
2019-03-03T02:56:11.226Z,3.47
2019-03-03T02:58:40.066Z,4.37
2019-03-03T03:01:09.668Z,4.80
2019-03-03T03:03:38.547Z,3.90
2019-03-03T03:06:12.775Z,4.90
2019-03-03T03:08:43.295Z,3.23
2019-03-03T03:11:17.619Z,3.97
2019-03-03T03:13:51.259Z,4.40
2019-03-03T03:16:20.130Z,3.17
2019-03-03T03:18:51.458Z,4.00
2019-03-03T03:21:25.322Z,3.90
2019-03-03T03:23:56.071Z,4.27
2019-03-03T03:26:24.964Z,3.80
2019-03-03T03:28:58.705Z,4.37
2019-03-03T03:31:27.586Z,4.53
2019-03-03T03:34:00.056Z,4.13
2019-03-03T03:36:29.020Z,5.00
2019-03-03T03:38:59.722Z,6.03
2019-03-03T03:41:30.341Z,5.83
2019-03-03T03:44:00.022Z,3.67
2019-03-03T03:46:30.493Z,6.97
2019-03-03T03:49:00.243Z,6.27
2019-03-03T03:51:30.096Z,4.97
2019-03-03T03:54:00.745Z,6.33
2019-03-03T03:56:31.389Z,3.50
2019-03-03T03:59:01.122Z,6.33
2019-03-03T04:01:33.922Z,4.27
2019-03-03T04:04:03.648Z,6.83
2019-03-03T04:06:36.394Z,6.35
2019-03-03T04:09:06.008Z,6.00
2019-03-03T04:11:35.006Z,5.03
2019-03-03T04:14:07.812Z,7.77
2019-03-03T04:16:39.385Z,4.60
2019-03-03T04:19:11.143Z,6.57
2019-03-03T04:21:40.775Z,7.57
2019-03-03T04:24:15.424Z,7.07
2019-03-03T04:26:46.144Z,5.07
2019-03-03T04:29:15.017Z,5.33
2019-03-03T04:31:43.872Z,5.03
2019-03-03T04:34:17.719Z,7.63
2019-03-03T04:36:47.363Z,6.43
2019-03-03T04:39:16.973Z,6.47
2019-03-03T04:41:46.675Z,7.10
2019-03-03T04:44:18.306Z,8.63
2019-03-03T04:46:48.890Z,8.25
2019-03-03T04:49:17.754Z,6.50
2019-03-03T04:51:49.521Z,8.57
2019-03-03T04:54:22.178Z,7.62
2019-03-03T04:56:54.797Z,7.00
2019-03-03T04:59:32.989Z,8.43
2019-03-03T05:02:04.839Z,8.27
2019-03-03T05:04:33.687Z,8.10
2019-03-03T05:07:08.433Z,9.50
2019-03-03T05:09:40.871Z,6.30
2019-03-03T05:12:10.525Z,7.97
2019-03-03T05:14:40.116Z,5.80
2019-03-03T05:17:15.309Z,8.70
2019-03-03T05:19:44.165Z,7.82
2019-03-03T05:22:13.030Z,8.60
2019-03-03T05:24:41.889Z,6.93
2019-03-03T05:27:10.747Z,8.53
2019-03-03T05:29:39.643Z,7.23
2019-03-03T05:32:08.516Z,6.10
2019-03-03T05:34:37.363Z,7.50
2019-03-03T05:37:06.271Z,8.27
2019-03-03T05:39:35.115Z,7.83
2019-03-03T05:42:04.004Z,10.00
2019-03-03T05:44:32.874Z,8.50
2019-03-03T05:47:01.775Z,7.50
2019-03-03T05:49:31.367Z,10.13
2019-03-03T05:52:00.984Z,10.03
2019-03-03T05:54:29.841Z,10.23
2019-03-03T05:56:59.433Z,10.37
2019-03-03T05:59:28.287Z,12.93
2019-03-03T06:01:57.185Z,11.10
2019-03-03T06:04:26.031Z,10.77
2019-03-03T06:06:55.642Z,11.47
2019-03-03T06:09:25.269Z,10.93
2019-03-03T06:11:54.159Z,10.20
2019-03-03T06:14:23.007Z,7.20
2019-03-03T06:16:51.904Z,8.30
2019-03-03T06:19:21.498Z,10.03
2019-03-03T06:21:50.367Z,8.93
2019-03-03T06:24:19.263Z,9.73
2019-03-03T06:26:48.079Z,10.17
2019-03-03T06:29:17.087Z,8.90
2019-03-03T06:31:46.686Z,9.70
2019-03-03T06:34:15.549Z,10.33
2019-03-03T06:36:44.427Z,10.37
2019-03-03T06:39:13.274Z,7.67
2019-03-03T06:41:42.153Z,9.43
2019-03-03T06:44:11.755Z,10.13
2019-03-03T06:46:40.641Z,8.90
2019-03-03T06:49:10.255Z,10.90
2019-03-03T06:51:39.112Z,7.60
2019-03-03T06:54:07.973Z,11.27
2019-03-03T06:56:36.846Z,9.93
2019-03-03T06:59:05.731Z,12.10
2019-03-03T07:01:34.607Z,10.80
2019-03-03T07:04:04.225Z,9.90
2019-03-03T07:06:33.835Z,12.20
2019-03-03T07:09:02.716Z,11.60
2019-03-03T07:11:31.567Z,9.30
2019-03-03T07:14:00.481Z,10.83
2019-03-03T07:16:29.380Z,14.87
2019-03-03T07:18:58.252Z,10.20
2019-03-03T07:21:27.115Z,10.93
2019-03-03T07:23:55.984Z,9.97
2019-03-03T07:26:24.855Z,13.27
2019-03-03T07:28:53.715Z,9.63
2019-03-03T07:31:23.337Z,10.10
2019-03-03T07:33:52.214Z,10.65
2019-03-03T07:36:21.853Z,12.37
2019-03-03T07:38:50.766Z,9.85
2019-03-03T07:41:19.643Z,13.27
2019-03-03T07:43:48.509Z,9.90
2019-03-03T07:46:17.391Z,9.97
2019-03-03T07:48:46.269Z,7.97
2019-03-03T07:51:15.147Z,9.07
2019-03-03T07:53:44.593Z,7.57
2019-03-03T07:56:13.471Z,12.90
2019-03-03T07:58:42.389Z,10.90
2019-03-03T08:01:11.273Z,8.90
2019-03-03T08:03:40.125Z,9.43
2019-03-03T08:06:09.751Z,10.10
2019-03-03T08:08:38.622Z,10.38
2019-03-03T08:11:07.487Z,11.20
2019-03-03T08:13:36.361Z,10.70
2019-03-03T08:16:05.255Z,8.87
2019-03-03T08:18:34.132Z,10.03
2019-03-03T08:21:03.055Z,7.37
2019-03-03T08:23:31.947Z,8.90
2019-03-03T08:26:01.221Z,10.07
2019-03-03T08:28:30.117Z,8.97
2019-03-03T08:30:59.036Z,8.33
2019-03-03T08:33:27.914Z,11.83
2019-03-03T08:35:56.797Z,10.57
2019-03-03T08:38:25.659Z,8.50
2019-03-03T08:40:54.551Z,7.60
2019-03-03T08:43:23.479Z,10.17
2019-03-03T08:45:53.108Z,6.87
2019-03-03T08:48:27.433Z,8.20
2019-03-03T08:50:57.142Z,9.30
2019-03-03T08:53:32.363Z,6.77
2019-03-03T08:56:03.797Z,8.00
2019-03-03T08:58:33.434Z,11.87
2019-03-03T09:01:04.195Z,8.40
2019-03-03T09:03:33.884Z,9.43
2019-03-03T09:06:07.659Z,7.57
2019-03-03T09:08:38.626Z,6.10
2019-03-03T09:11:10.459Z,7.43
2019-03-03T09:13:45.029Z,7.60
2019-03-03T09:16:16.776Z,8.13
2019-03-03T09:18:49.451Z,6.77
2019-03-03T09:21:21.257Z,8.27
2019-03-03T09:23:52.610Z,9.03
2019-03-03T09:26:21.475Z,7.97
2019-03-03T09:28:50.465Z,8.27
2019-03-03T09:31:19.418Z,7.67
2019-03-03T09:33:50.889Z,7.37
2019-03-03T09:36:21.607Z,6.80
2019-03-03T09:38:54.344Z,7.43
2019-03-03T09:41:28.813Z,5.90
2019-03-03T09:43:58.569Z,7.37
2019-03-03T09:46:27.475Z,7.10
2019-03-03T09:49:01.249Z,6.93
2019-03-03T09:51:33.666Z,6.33
2019-03-03T09:54:02.557Z,7.90
2019-03-03T09:56:44.651Z,8.40
2019-03-03T09:59:14.461Z,9.07
2019-03-03T10:01:47.118Z,6.63
2019-03-03T10:04:17.850Z,10.77
2019-03-03T10:06:47.435Z,6.90
2019-03-03T10:09:16.304Z,6.83
2019-03-03T10:11:45.272Z,9.93
2019-03-03T10:14:16.030Z,6.80
2019-03-03T10:16:45.705Z,7.27
2019-03-03T10:19:16.062Z,7.03
2019-03-03T10:21:46.001Z,7.12
2019-03-03T10:24:15.761Z,6.23
2019-03-03T10:26:48.327Z,7.23
2019-03-03T10:29:22.809Z,6.60
2019-03-03T10:31:51.685Z,27.27
2019-03-03T10:34:26.048Z,9.33
2019-03-03T10:36:55.633Z,5.63
2019-03-03T10:39:24.469Z,5.67
2019-03-03T10:42:00.130Z,7.13
2019-03-03T10:44:30.993Z,6.97
2019-03-03T10:47:00.601Z,8.70
2019-03-03T10:49:31.339Z,7.40
2019-03-03T10:52:06.211Z,7.00
2019-03-03T10:54:39.858Z,4.10
2019-03-03T10:57:08.749Z,8.53
2019-03-03T10:59:42.409Z,4.97
2019-03-03T11:02:16.003Z,6.67
2019-03-03T11:04:46.794Z,6.20
2019-03-03T11:07:16.663Z,6.47
2019-03-03T11:09:50.579Z,9.43
2019-03-03T11:12:22.163Z,7.32
2019-03-03T11:14:51.033Z,6.50
2019-03-03T11:17:22.874Z,5.77
2019-03-03T11:19:51.743Z,6.60
2019-03-03T11:22:20.645Z,7.53
2019-03-03T11:24:49.517Z,5.23
2019-03-03T11:27:21.398Z,6.30
2019-03-03T11:29:55.866Z,6.00
2019-03-03T11:32:24.751Z,6.47
2019-03-03T11:34:58.411Z,5.73
2019-03-03T11:37:27.284Z,5.60
2019-03-03T11:39:56.322Z,6.33
2019-03-03T11:42:26.927Z,5.53
2019-03-03T11:44:57.452Z,5.00
2019-03-03T11:47:31.254Z,6.07
2019-03-03T11:50:02.922Z,5.40
2019-03-03T11:52:32.622Z,3.63
2019-03-03T11:55:01.484Z,5.13
2019-03-03T11:57:34.083Z,7.18
2019-03-03T12:00:03.579Z,5.10
2019-03-03T12:02:35.349Z,4.95
2019-03-03T12:05:10.521Z,4.27
2019-03-03T12:07:39.441Z,5.50
2019-03-03T12:10:10.055Z,4.50
2019-03-03T12:12:39.782Z,3.40
2019-03-03T12:15:08.631Z,6.60
2019-03-03T12:17:43.654Z,4.67
2019-03-03T12:20:12.133Z,5.10
2019-03-03T12:22:47.504Z,6.32
2019-03-03T12:25:22.042Z,3.70
2019-03-03T12:27:56.557Z,2.87
2019-03-03T12:30:28.659Z,3.37
2019-03-03T12:32:58.076Z,3.70
2019-03-03T12:35:28.603Z,2.87
2019-03-03T12:37:58.213Z,4.87
2019-03-03T12:40:28.573Z,5.43
2019-03-03T12:42:58.218Z,5.10
2019-03-03T12:45:28.977Z,3.20
2019-03-03T12:48:02.476Z,3.97
2019-03-03T12:50:32.336Z,6.62
2019-03-03T12:53:01.390Z,3.80
2019-03-03T12:55:30.971Z,2.87
2019-03-03T12:58:02.712Z,4.25
2019-03-03T13:00:34.294Z,3.93
2019-03-03T13:03:08.609Z,4.73
2019-03-03T13:05:42.540Z,6.53
2019-03-03T13:08:12.755Z,4.93
2019-03-03T13:10:43.451Z,5.20
2019-03-03T13:13:12.315Z,4.60
2019-03-03T13:15:46.641Z,6.13
2019-03-03T13:18:15.491Z,3.40
2019-03-03T13:20:45.363Z,5.03
2019-03-03T13:23:16.123Z,3.50
2019-03-03T13:25:45.997Z,4.47
2019-03-03T13:28:15.733Z,5.23
2019-03-03T13:30:45.561Z,5.20
2019-03-03T13:33:15.299Z,4.97
2019-03-03T13:35:49.763Z,6.53
2019-03-03T13:38:20.623Z,2.70
2019-03-03T13:40:52.184Z,4.57
2019-03-03T13:43:21.843Z,3.30
2019-03-03T13:45:50.824Z,5.57
2019-03-03T13:48:19.595Z,6.63
2019-03-03T13:50:48.554Z,7.53
2019-03-03T13:53:17.533Z,5.07
2019-03-03T13:55:46.492Z,5.87
2019-03-03T13:58:15.399Z,6.70
2019-03-03T14:00:44.287Z,5.07
2019-03-03T14:03:13.173Z,5.43
2019-03-03T14:05:42.052Z,5.10
2019-03-03T14:08:10.876Z,4.50
2019-03-03T14:10:39.728Z,6.77
2019-03-03T14:13:08.575Z,4.17
2019-03-03T14:15:38.199Z,7.77
2019-03-03T14:18:07.068Z,4.45
2019-03-03T14:20:36.672Z,4.83
2019-03-03T14:23:05.562Z,5.85
2019-03-03T14:25:35.172Z,5.20
2019-03-03T14:28:04.803Z,4.77
2019-03-03T14:30:33.679Z,5.20
2019-03-03T14:33:03.333Z,3.17
2019-03-03T14:35:32.190Z,4.57
2019-03-03T14:38:01.076Z,5.63
2019-03-03T14:40:29.965Z,5.30
2019-03-03T14:42:59.610Z,4.53
2019-03-03T14:45:28.451Z,8.17
2019-03-03T14:47:58.039Z,4.80
2019-03-03T14:50:26.904Z,5.45
2019-03-03T14:52:55.761Z,4.93
2019-03-03T14:55:24.612Z,4.50
2019-03-03T14:57:53.469Z,3.77
2019-03-03T15:00:28.322Z,4.63
2019-03-03T15:02:57.838Z,6.93
2019-03-03T15:05:27.416Z,5.90
2019-03-03T15:07:56.281Z,5.28
2019-03-03T15:10:25.160Z,5.63
2019-03-03T15:12:54.030Z,6.30
2019-03-03T15:15:23.667Z,6.10
2019-03-03T15:17:52.545Z,7.30
2019-03-03T15:20:21.396Z,4.57
2019-03-03T15:22:50.263Z,5.07
2019-03-03T15:25:19.099Z,4.27
2019-03-03T15:27:47.996Z,4.10
2019-03-03T15:30:17.611Z,5.10
2019-03-03T15:32:46.496Z,5.17
2019-03-03T15:35:15.340Z,6.20
2019-03-03T15:37:44.202Z,6.20
2019-03-03T15:40:13.085Z,4.90
2019-03-03T15:42:41.939Z,5.12
2019-03-03T15:45:13.490Z,5.97
2019-03-03T15:47:42.350Z,4.80
2019-03-03T15:50:11.217Z,3.63
2019-03-03T15:52:40.097Z,5.70
2019-03-03T15:55:09.850Z,3.53
2019-03-03T15:57:38.729Z,6.57
2019-03-03T16:00:07.582Z,4.90
2019-03-03T16:02:36.440Z,4.90
2019-03-03T16:05:05.400Z,4.70
2019-03-03T16:07:34.224Z,6.77
2019-03-03T16:10:03.138Z,6.40
2019-03-03T16:12:32.039Z,4.63
2019-03-03T16:15:00.906Z,6.03
2019-03-03T16:17:29.768Z,4.83
2019-03-03T16:19:59.402Z,5.67
2019-03-03T16:22:28.273Z,5.53
2019-03-03T16:24:57.881Z,4.53
2019-03-03T16:27:26.728Z,5.03
2019-03-03T16:29:55.596Z,5.13
2019-03-03T16:32:24.429Z,5.00
2019-03-03T16:34:53.412Z,4.60
2019-03-03T16:37:22.242Z,6.90
2019-03-03T16:39:51.097Z,6.23
2019-03-03T16:42:19.998Z,5.47
2019-03-03T16:44:49.608Z,5.37
2019-03-03T16:47:19.230Z,6.28
2019-03-03T16:49:48.047Z,6.12
2019-03-03T16:52:16.886Z,4.80
2019-03-03T16:54:45.735Z,7.03
2019-03-03T16:57:14.578Z,5.30
2019-03-03T16:59:44.158Z,5.03
2019-03-03T17:02:13.020Z,5.73
2019-03-03T17:04:41.853Z,6.67
2019-03-03T17:07:11.448Z,6.57
2019-03-03T17:09:40.311Z,6.13
2019-03-03T17:12:09.184Z,5.25
2019-03-03T17:14:38.010Z,6.53
2019-03-03T17:17:06.853Z,5.50
2019-03-03T17:19:35.712Z,5.57
2019-03-03T17:22:05.297Z,4.73
2019-03-03T17:24:34.148Z,5.68
2019-03-03T17:27:02.991Z,5.93
2019-03-03T17:29:31.844Z,8.40
2019-03-03T17:32:00.682Z,5.70
2019-03-03T17:34:30.270Z,5.50
2019-03-03T17:36:59.132Z,5.43
2019-03-03T17:39:27.982Z,5.30
2019-03-03T17:41:56.841Z,6.65
2019-03-03T17:44:25.682Z,3.90
2019-03-03T17:46:54.557Z,5.40
2019-03-03T17:49:24.112Z,4.27
2019-03-03T17:52:08.210Z,4.63
2019-03-03T17:54:37.055Z,5.07
2019-03-03T17:57:05.891Z,6.90
2019-03-03T17:59:34.734Z,5.60
2019-03-03T18:02:03.594Z,7.67
2019-03-03T18:04:32.432Z,6.30
2019-03-03T18:07:01.282Z,4.57
2019-03-03T18:09:30.153Z,7.13
2019-03-03T18:11:58.994Z,6.37
2019-03-03T18:14:27.837Z,5.23
2019-03-03T18:16:56.686Z,6.13
2019-03-03T18:19:25.536Z,4.33
2019-03-03T18:21:54.370Z,6.63
2019-03-03T18:24:23.206Z,5.10
2019-03-03T18:26:52.071Z,7.73
2019-03-03T18:29:20.926Z,6.27
2019-03-03T18:31:50.520Z,6.83
2019-03-03T18:34:19.378Z,4.77
2019-03-03T18:36:48.221Z,4.67
2019-03-03T18:39:17.082Z,4.57
2019-03-03T18:41:46.901Z,5.37
2019-03-03T18:44:15.758Z,7.07
2019-03-03T18:46:44.617Z,6.43
2019-03-03T18:49:13.470Z,6.23
2019-03-03T18:51:42.457Z,5.50
2019-03-03T18:54:12.035Z,6.27
2019-03-03T18:56:40.871Z,6.97
2019-03-03T18:59:09.769Z,6.97
2019-03-03T19:01:38.619Z,6.90
2019-03-03T19:04:07.480Z,8.50
2019-03-03T19:06:36.336Z,5.23
2019-03-03T19:09:05.176Z,7.77
2019-03-03T19:11:34.039Z,4.80
2019-03-03T19:14:02.887Z,7.47
2019-03-03T19:16:31.729Z,5.67
2019-03-03T19:19:00.572Z,6.97
2019-03-03T19:21:30.171Z,4.73
2019-03-03T19:23:59.759Z,6.80
2019-03-03T19:26:28.614Z,4.73
2019-03-03T19:28:57.449Z,8.27
2019-03-03T19:31:26.298Z,4.90
2019-03-03T19:33:55.138Z,6.47
2019-03-03T19:36:23.976Z,5.20
2019-03-03T19:38:52.826Z,5.83
2019-03-03T19:41:21.680Z,6.17
2019-03-03T19:43:50.532Z,5.63
2019-03-03T19:46:19.384Z,5.53
2019-03-03T19:48:49.000Z,7.13
2019-03-03T19:51:17.850Z,6.77
2019-03-03T19:53:46.708Z,5.37
2019-03-03T19:56:15.590Z,5.37
2019-03-03T19:58:44.412Z,4.50
2019-03-03T20:01:13.269Z,5.40
2019-03-03T20:03:42.126Z,4.33
2019-03-03T20:06:11.004Z,5.13
2019-03-03T20:08:39.837Z,7.37
2019-03-03T20:11:08.675Z,4.77
2019-03-03T20:13:37.545Z,6.00
2019-03-03T20:16:06.392Z,4.60
2019-03-03T20:18:35.291Z,6.60
2019-03-03T20:21:04.880Z,4.07
2019-03-03T20:23:33.746Z,5.32
2019-03-03T20:26:02.606Z,4.07
2019-03-03T20:28:31.452Z,4.57
2019-03-03T20:31:00.308Z,5.53
2019-03-03T20:33:29.803Z,3.33
2019-03-03T20:36:22.038Z,5.53
2019-03-03T20:38:30.876Z,4.73
2019-03-03T20:40:59.734Z,5.93
2019-03-03T20:43:28.591Z,5.22
2019-03-03T20:45:57.452Z,5.00
2019-03-03T20:48:26.318Z,6.30
2019-03-03T20:50:55.154Z,6.00
2019-03-03T20:53:24.035Z,4.33
2019-03-03T20:55:52.854Z,7.10
2019-03-03T20:58:22.132Z,4.50
2019-03-03T21:00:50.996Z,3.87
2019-03-03T21:03:21.685Z,7.73
2019-03-03T21:05:48.690Z,5.10
2019-03-03T21:08:18.301Z,5.87
2019-03-03T21:10:47.183Z,6.80
2019-03-03T21:13:16.332Z,7.57
2019-03-03T21:15:45.153Z,5.60
2019-03-03T21:18:14.755Z,4.90
2019-03-03T21:20:43.598Z,5.93
2019-03-03T21:23:12.666Z,6.57
2019-03-03T21:25:41.519Z,5.47
2019-03-03T21:28:10.379Z,5.17
2019-03-03T21:30:39.236Z,5.78
2019-03-03T21:33:08.104Z,6.17
2019-03-03T21:35:36.967Z,7.07
2019-03-03T21:38:06.021Z,4.43
2019-03-03T21:40:34.868Z,5.70
2019-03-03T21:43:04.496Z,6.30
2019-03-03T21:45:33.369Z,5.27
2019-03-03T21:48:03.298Z,5.97
2019-03-03T21:50:32.218Z,7.73
2019-03-03T21:53:01.782Z,4.77
2019-03-03T21:55:31.372Z,4.47
2019-03-03T21:58:00.247Z,5.65
2019-03-03T22:03:10.562Z,6.35
2019-03-03T22:05:40.152Z,4.73
2019-03-03T22:08:09.023Z,5.20
2019-03-03T22:10:37.876Z,4.80
2019-03-03T22:13:07.547Z,4.30
2019-03-03T22:15:36.476Z,5.70
2019-03-03T22:18:05.489Z,4.87
2019-03-03T22:20:34.355Z,4.70
2019-03-03T22:23:03.209Z,4.33
2019-03-03T22:25:32.820Z,4.67
2019-03-03T22:28:02.479Z,4.85
2019-03-03T22:30:31.364Z,5.90
2019-03-03T22:33:00.609Z,4.20
2019-03-03T22:35:29.488Z,7.17
2019-03-03T22:37:58.361Z,4.00
2019-03-03T22:40:27.241Z,5.77
2019-03-03T22:42:56.077Z,5.83
2019-03-03T22:45:25.680Z,4.23
2019-03-03T22:47:54.586Z,5.37
2019-03-03T22:50:24.192Z,5.50
2019-03-03T22:52:53.032Z,6.23
2019-03-03T22:55:21.907Z,5.97
2019-03-03T22:57:50.755Z,4.63
2019-03-03T23:00:37.806Z,5.63
2019-03-03T23:03:07.358Z,4.33
2019-03-03T23:08:19.103Z,7.20
2019-03-03T23:13:30.060Z,8.25
2019-03-03T23:19:00.720Z,5.85
2019-03-03T23:21:40.586Z,6.28
2019-03-03T23:24:15.197Z,5.70
2019-03-03T23:26:44.032Z,5.73
2019-03-03T23:29:12.903Z,4.93
2019-03-03T23:31:41.754Z,5.33
2019-03-03T23:34:12.104Z,6.80
2019-03-03T23:36:40.264Z,5.07
2019-03-03T23:39:09.123Z,5.73
2019-03-03T23:41:38.015Z,5.63
2019-03-03T23:44:06.878Z,4.13
2019-03-03T23:46:35.731Z,5.60
2019-03-03T23:49:04.597Z,6.67
2019-03-03T23:51:34.202Z,4.67
2019-03-03T23:54:03.836Z,6.43
2019-03-03T23:56:32.673Z,5.47
2019-03-03T23:59:01.530Z,6.33
